Terminal Aerodrome Forecast
Issued by NWS

Home | Current Version | Previous Version | Text Only | Print | Product List | Glossary On
Versions: 1 2 3 4 5 6 7 8 9 10 11 12 13 14 15 16 17 18 19 20 21 22 23 24 25 26 27 28 29 30 31 32 33 34 35
272
FTAK31 PANC 081135
TAFADL
TAF
PADL 081135Z 0812/0912 01018G26KT P6SM VCSH SCT040 BKN070
      WS020/08044KT
     FM081500 03022G29KT P6SM -SN SCT020 BKN030 WS020/08040KT
     FM082000 05015G25KT 5SM -RASN BR SCT008 BKN015 WS020/12037KT
     FM090600 06011KT P6SM VCSH BKN007=

USA.gov is the U.S. government's official web portal to all federal, state and local government web resources and services.